Time;durP1;ratioP1;P1;durP2;ratioP2;P2;SDS_P1;SDS_P2;PMS_P1;PMS_P2;Temp;Humidity;BMP_temperature;BMP_pressure;BME280_temperature;BME280_humidity;BME280_pressure;Samples;Min_cycle;Max_cycle;Signal;HPM_P1;HPM_P2
2022/01/07 00:02:06;;;;;;;6.87;4.63;;;3.70;74.50;3.40;96636.00;;;;5058875;28;20439;-89
2022/01/07 00:04:35;;;;;;;7.20;4.80;;;3.60;74.40;3.40;96627.00;;;;5054174;28;20447;-88
2022/01/07 00:07:03;;;;;;;6.30;4.43;;;3.70;74.40;3.40;96629.00;;;;5057496;28;20532;-88
2022/01/07 00:09:31;;;;;;;6.43;4.57;;;3.70;74.20;3.30;96645.00;;;;5059925;28;20459;-88
2022/01/07 00:11:59;;;;;;;5.67;4.53;;;3.60;73.80;3.30;96642.00;;;;5058241;28;20861;-88
2022/01/07 00:14:26;;;;;;;5.53;4.50;;;3.70;73.60;3.30;96646.00;;;;5052594;28;20197;-87
2022/01/07 00:16:55;;;;;;;5.73;4.43;;;3.60;73.50;3.20;96638.00;;;;5052790;28;20808;-87
2022/01/07 00:19:22;;;;;;;4.80;4.27;;;3.60;73.30;3.20;96635.00;;;;5057710;28;20553;-87
2022/01/07 00:21:50;;;;;;;8.43;5.20;;;3.80;73.50;3.10;96640.00;;;;5063658;28;20450;-89
2022/01/07 00:24:17;;;;;;;5.90;4.50;;;3.50;73.30;3.10;96641.00;;;;5056262;28;20916;-87
2022/01/07 00:26:44;;;;;;;7.50;4.63;;;3.40;73.50;3.10;96640.00;;;;5072897;28;20461;-89
2022/01/07 00:29:11;;;;;;;5.87;4.43;;;3.40;73.60;3.10;96630.00;;;;5054010;28;20467;-88
2022/01/07 00:31:38;;;;;;;6.37;4.50;;;3.40;73.70;3.10;96632.00;;;;5067201;28;20446;-88
2022/01/07 00:34:07;;;;;;;6.23;4.70;;;3.40;73.90;3.10;96648.00;;;;5063903;28;20872;-90
2022/01/07 00:36:34;;;;;;;6.03;4.43;;;3.70;73.80;3.10;96642.00;;;;5054483;28;20562;-89
2022/01/07 00:39:02;;;;;;;9.50;5.10;;;3.30;73.50;3.00;96638.00;;;;5073523;28;20462;-89
2022/01/07 00:41:31;;;;;;;7.10;5.03;;;3.30;73.50;3.00;96638.00;;;;5073196;28;20442;-88
2022/01/07 00:43:58;;;;;;;8.83;5.60;;;3.30;73.50;3.00;96636.00;;;;5058646;28;20454;-89
2022/01/07 00:46:25;;;;;;;6.57;5.13;;;3.30;73.40;2.90;96633.00;;;;5032767;28;20447;-88
2022/01/07 00:48:53;;;;;;;9.70;6.20;;;3.80;73.80;2.90;96644.00;;;;5032578;28;20559;-89
2022/01/07 00:51:21;;;;;;;10.90;6.57;;;3.20;73.40;2.90;96646.00;;;;5045270;28;20435;-87
2022/01/07 00:53:49;;;;;;;9.43;6.07;;;3.20;73.40;2.80;96635.00;;;;5072508;28;20546;-89
2022/01/07 00:56:16;;;;;;;8.60;6.23;;;3.20;73.60;2.80;96635.00;;;;5056347;28;20470;-88
2022/01/07 00:58:43;;;;;;;8.43;6.47;;;3.10;73.70;2.80;96633.00;;;;5063655;28;20466;-88
2022/01/07 01:01:10;;;;;;;11.07;6.10;;;3.10;73.80;2.80;96639.00;;;;5052677;28;20534;-88
2022/01/07 01:03:37;;;;;;;8.77;5.97;;;3.10;73.60;2.80;96637.00;;;;5059189;28;20438;-88
2022/01/07 01:06:04;;;;;;;6.67;5.50;;;3.10;73.60;2.80;96632.00;;;;5068669;28;20813;-88
2022/01/07 01:08:33;;;;;;;7.10;5.80;;;3.10;73.50;2.80;96630.00;;;;5052719;28;20470;-88
2022/01/07 01:11:04;;;;;;;7.80;5.67;;;3.00;73.60;2.70;96634.00;;;;5057694;28;20440;-87
2022/01/07 01:13:34;;;;;;;6.57;5.37;;;3.00;73.70;2.70;96615.00;;;;5063495;28;20447;-89
2022/01/07 01:16:01;;;;;;;5.77;4.90;;;3.10;73.90;2.70;96625.00;;;;5051899;28;20497;-88
2022/01/07 01:18:28;;;;;;;5.80;5.10;;;3.00;73.80;2.70;96617.00;;;;5052187;28;20542;-87
2022/01/07 01:20:56;;;;;;;7.07;5.27;;;3.00;73.70;2.70;96616.00;;;;5051875;28;20486;-88
2022/01/07 01:23:23;;;;;;;7.57;5.33;;;3.00;73.80;2.70;96615.00;;;;5058864;28;20512;-88
2022/01/07 01:25:52;;;;;;;5.47;4.97;;;3.00;73.90;2.70;96594.00;;;;5068588;28;20435;-88
2022/01/07 01:28:19;;;;;;;8.80;5.37;;;2.90;74.10;2.70;96603.00;;;;5051735;28;20462;-88
2022/01/07 01:30:47;;;;;;;6.53;5.80;;;2.90;74.30;2.70;96600.00;;;;5051771;28;21042;-88
2022/01/07 01:33:14;;;;;;;8.70;6.00;;;2.90;74.40;2.70;96602.00;;;;5051944;28;20549;-88
2022/01/07 01:35:44;;;;;;;9.17;5.77;;;2.90;74.40;2.70;96589.00;;;;5053830;28;21154;-88
2022/01/07 01:38:11;;;;;;;6.93;5.57;;;2.90;74.40;2.70;96582.00;;;;5048897;28;20459;-87
2022/01/07 01:40:38;;;;;;;6.07;5.00;;;3.60;74.80;2.70;96578.00;;;;5064795;28;20936;-87
2022/01/07 01:43:09;;;;;;;6.47;4.97;;;3.00;74.40;2.70;96573.00;;;;5056253;28;20443;-88
2022/01/07 01:45:37;;;;;;;5.67;4.87;;;2.90;74.30;2.70;96558.00;;;;5056576;28;20438;-88
2022/01/07 01:48:05;;;;;;;5.73;4.50;;;3.40;74.50;2.70;96581.00;;;;5055779;28;20549;-89
2022/01/07 01:50:32;;;;;;;5.90;4.77;;;2.90;74.00;2.60;96567.00;;;;5055908;28;20434;-89
2022/01/07 01:52:59;;;;;;;5.87;5.13;;;3.40;74.30;2.60;96565.00;;;;5035971;28;20436;-88
2022/01/07 01:55:29;;;;;;;5.47;4.40;;;2.90;73.90;2.60;96569.00;;;;5060811;28;20923;-89
2022/01/07 01:58:00;;;;;;;5.20;4.70;;;2.90;73.90;2.60;96573.00;;;;5062217;28;20907;-88
2022/01/07 02:00:29;;;;;;;8.77;4.70;;;2.90;73.90;2.60;96573.00;;;;5059063;28;20434;-89
2022/01/07 02:02:56;;;;;;;7.07;5.50;;;2.90;73.90;2.60;96563.00;;;;5075909;28;20438;-89
2022/01/07 02:05:24;;;;;;;6.10;4.97;;;2.90;73.80;2.60;96563.00;;;;5055620;28;20449;-88
2022/01/07 02:07:51;;;;;;;6.40;5.33;;;2.90;73.90;2.50;96560.00;;;;5055661;28;20980;-88
2022/01/07 02:10:19;;;;;;;8.67;5.33;;;2.90;73.80;2.50;96568.00;;;;5055803;28;20439;-87
2022/01/07 02:12:47;;;;;;;7.20;5.40;;;3.00;73.70;2.50;96567.00;;;;5063912;28;20917;-88
2022/01/07 02:15:18;;;;;;;6.90;5.27;;;2.80;73.70;2.50;96576.00;;;;5050922;28;20431;-88
2022/01/07 02:17:49;;;;;;;5.97;4.93;;;2.80;74.50;2.50;96577.00;;;;5036154;28;20558;-88
2022/01/07 02:20:21;;;;;;;7.33;4.93;;;2.80;73.70;2.50;96582.00;;;;5061274;28;20427;-88
2022/01/07 02:22:48;;;;;;;6.33;4.93;;;2.80;73.80;2.50;96569.00;;;;5055435;28;21025;-88
2022/01/07 02:25:15;;;;;;;5.83;4.87;;;2.80;73.80;2.50;96578.00;;;;5055183;28;20812;-87
2022/01/07 02:27:45;;;;;;;5.27;4.77;;;2.80;73.80;2.40;96579.00;;;;5055261;28;20458;-88
2022/01/07 02:30:16;;;;;;;7.63;5.37;;;2.80;73.70;2.40;96573.00;;;;5055644;28;20450;-87
2022/01/07 02:32:43;;;;;;;8.73;5.53;;;2.70;73.50;2.40;96568.00;;;;5055324;28;20435;-88
2022/01/07 02:35:12;;;;;;;5.70;4.83;;;2.70;73.80;2.40;96562.00;;;;5055435;28;20443;-88
2022/01/07 02:37:41;;;;;;;6.90;4.23;;;2.70;73.80;2.40;96574.00;;;;5068309;28;20532;-88
2022/01/07 02:40:10;;;;;;;5.07;4.57;;;2.70;73.60;2.40;96570.00;;;;5062134;28;20820;-88
2022/01/07 02:42:38;;;;;;;6.30;4.73;;;2.70;73.50;2.30;96565.00;;;;5070947;28;20534;-88
2022/01/07 02:45:08;;;;;;;5.93;4.77;;;2.60;73.50;2.30;96560.00;;;;5055194;28;20435;-88
2022/01/07 02:47:48;;;;;;;6.03;4.93;;;2.60;74.10;2.30;96558.00;;;;5054291;28;20805;-88
2022/01/07 02:50:17;;;;;;;7.63;4.80;;;2.60;73.40;2.20;96549.00;;;;5055099;28;20427;-87
2022/01/07 02:52:45;;;;;;;4.97;4.27;;;2.60;73.50;2.20;96534.00;;;;5055143;28;20446;-88
2022/01/07 02:55:12;;;;;;;6.23;4.73;;;2.60;73.60;2.20;96552.00;;;;5055789;28;20526;-87
2022/01/07 02:57:40;;;;;;;6.33;4.87;;;2.50;73.80;2.20;96540.00;;;;5053894;28;20844;-88
2022/01/07 03:00:09;;;;;;;6.73;4.73;;;2.50;73.90;2.20;96541.00;;;;5058773;28;21322;-87
2022/01/07 03:02:37;;;;;;;6.23;4.57;;;2.50;73.90;2.20;96548.00;;;;5035775;28;20440;-88
2022/01/07 03:05:05;;;;;;;5.00;4.50;;;2.50;73.90;2.20;96548.00;;;;5061871;28;20443;-88
2022/01/07 03:07:34;;;;;;;5.23;4.30;;;2.50;73.80;2.20;96531.00;;;;5061064;28;20458;-88
2022/01/07 03:10:04;;;;;;;5.87;4.40;;;2.50;73.70;2.10;96519.00;;;;5069128;28;20449;-88
2022/01/07 03:12:31;;;;;;;6.37;4.47;;;2.50;73.50;2.10;96524.00;;;;5073887;28;20513;-88
2022/01/07 03:14:58;;;;;;;6.00;4.43;;;2.60;73.50;2.10;96515.00;;;;5044600;28;20519;-88
2022/01/07 03:17:25;;;;;;;5.30;4.47;;;2.40;73.50;2.10;96523.00;;;;5047854;28;20520;-87
2022/01/07 03:19:52;;;;;;;6.53;4.70;;;2.40;73.60;2.10;96512.00;;;;5076711;28;20466;-87
2022/01/07 03:22:19;;;;;;;4.73;4.33;;;2.40;73.60;2.10;96537.00;;;;5059508;28;20809;-87
2022/01/07 03:24:46;;;;;;;6.80;4.60;;;2.40;73.70;2.10;96531.00;;;;5053513;28;20443;-86
2022/01/07 03:27:15;;;;;;;5.87;4.20;;;2.50;73.80;2.10;96534.00;;;;5066916;28;20449;-87
2022/01/07 03:29:42;;;;;;;5.17;4.33;;;2.40;73.80;2.10;96533.00;;;;5058604;28;20814;-87
2022/01/07 03:32:10;;;;;;;4.43;3.93;;;2.40;73.70;2.10;96524.00;;;;5066686;28;20438;-87
2022/01/07 03:34:37;;;;;;;4.17;3.83;;;2.40;73.80;2.00;96528.00;;;;5056406;28;20454;-87
2022/01/07 03:37:04;;;;;;;6.13;4.43;;;2.30;73.60;2.00;96522.00;;;;5065788;28;20479;-87
2022/01/07 03:39:32;;;;;;;4.83;4.43;;;2.30;73.40;2.00;96517.00;;;;5053953;28;20469;-87
2022/01/07 03:41:59;;;;;;;6.83;4.50;;;2.30;73.50;2.00;96506.00;;;;5066320;28;20830;-86
2022/01/07 03:44:27;;;;;;;4.97;4.47;;;2.30;73.40;1.90;96505.00;;;;5050668;28;20446;-86
2022/01/07 03:46:55;;;;;;;4.97;4.17;;;2.30;73.40;2.00;96504.00;;;;5064851;28;20458;-86
2022/01/07 03:49:22;;;;;;;5.00;4.40;;;2.30;73.40;1.90;96510.00;;;;5076509;23;20487;-89
2022/01/07 03:51:49;;;;;;;4.40;4.00;;;2.30;73.60;1.90;96518.00;;;;5046118;28;20454;-89
2022/01/07 03:54:16;;;;;;;7.03;4.37;;;2.20;73.70;1.90;96516.00;;;;5046436;28;20444;-89
2022/01/07 03:56:43;;;;;;;4.27;3.97;;;2.20;73.80;1.90;96517.00;;;;5053053;28;20479;-89
2022/01/07 03:59:10;;;;;;;4.83;3.90;;;2.20;73.70;1.90;96521.00;;;;5032793;28;20428;-88
2022/01/07 04:01:39;;;;;;;4.70;4.20;;;2.20;73.70;1.90;96529.00;;;;5047531;28;20465;-89
2022/01/07 04:04:06;;;;;;;5.23;4.50;;;2.20;73.70;1.80;96542.00;;;;5013271;28;20802;-89
2022/01/07 04:06:33;;;;;;;6.03;4.33;;;2.20;73.70;1.90;96528.00;;;;5033232;28;20472;-89
2022/01/07 04:09:01;;;;;;;4.47;4.03;;;2.20;73.70;1.80;96531.00;;;;5038399;28;20452;-89
2022/01/07 04:11:28;;;;;;;4.80;4.03;;;2.20;73.60;1.80;96526.00;;;;5044571;28;20439;-89
2022/01/07 04:13:55;;;;;;;5.20;3.87;;;2.20;73.40;1.80;96525.00;;;;5033910;28;20451;-89
2022/01/07 04:16:22;;;;;;;6.03;4.00;;;2.10;73.30;1.70;96517.00;;;;5035118;28;20482;-89
2022/01/07 04:18:50;;;;;;;4.10;3.70;;;2.10;73.10;1.70;96528.00;;;;5047668;28;20802;-89
2022/01/07 04:21:17;;;;;;;4.73;4.20;;;2.10;73.00;1.70;96524.00;;;;5039599;28;20440;-89
2022/01/07 04:23:44;;;;;;;4.47;3.80;;;2.10;73.10;1.70;96530.00;;;;5035946;28;20436;-89
2022/01/07 04:26:11;;;;;;;5.87;4.03;;;2.00;73.10;1.70;96519.00;;;;5036656;28;20466;-89
2022/01/07 04:28:38;;;;;;;4.30;3.90;;;2.00;73.00;1.60;96512.00;;;;5033997;28;20816;-89
2022/01/07 04:31:05;;;;;;;6.13;4.17;;;2.00;72.90;1.60;96515.00;;;;5033020;28;20436;-89
2022/01/07 04:33:34;;;;;;;4.87;3.70;;;2.00;73.10;1.60;96499.00;;;;5033377;28;20532;-89
2022/01/07 04:36:03;;;;;;;4.13;3.30;;;1.90;73.10;1.60;96501.00;;;;5034011;28;20470;-89
2022/01/07 04:38:30;;;;;;;4.13;3.50;;;1.90;73.10;1.50;96520.00;;;;5039225;28;20992;-89
2022/01/07 04:40:57;;;;;;;4.47;4.10;;;2.00;73.30;1.50;96526.00;;;;5034421;28;20522;-89
2022/01/07 04:43:24;;;;;;;5.83;4.03;;;1.90;73.30;1.50;96514.00;;;;5042348;28;20945;-89
2022/01/07 04:45:51;;;;;;;5.87;3.80;;;1.90;73.20;1.50;96521.00;;;;5036436;28;20488;-88
2022/01/07 04:48:19;;;;;;;5.33;3.50;;;1.90;73.10;1.50;96518.00;;;;5051993;28;20450;-88
2022/01/07 04:50:46;;;;;;;4.10;3.40;;;1.90;73.20;1.50;96530.00;;;;5033392;28;20460;-88
2022/01/07 04:53:14;;;;;;;4.10;3.80;;;1.80;73.20;1.40;96527.00;;;;5033060;28;20436;-88
2022/01/07 04:55:43;;;;;;;5.13;3.90;;;1.80;73.30;1.50;96525.00;;;;5033711;28;20471;-88
2022/01/07 04:58:13;;;;;;;4.53;4.13;;;1.80;73.40;1.50;96522.00;;;;5033965;28;20515;-88
2022/01/07 05:00:42;;;;;;;4.53;4.13;;;1.80;73.40;1.50;96512.00;;;;5033639;28;20439;-87
2022/01/07 05:03:13;;;;;;;4.30;3.90;;;1.80;73.30;1.50;96517.00;;;;5033651;28;20447;-87
2022/01/07 05:05:43;;;;;;;5.77;3.80;;;1.70;73.20;1.50;96516.00;;;;5032766;28;20464;-88
2022/01/07 05:08:16;;;;;;;6.20;4.10;;;1.80;73.40;1.50;96511.00;;;;5033280;28;20436;-87
2022/01/07 05:10:43;;;;;;;4.20;3.80;;;1.80;73.50;1.60;96520.00;;;;5032452;28;20721;-87
2022/01/07 05:13:10;;;;;;;4.00;3.70;;;1.80;73.60;1.60;96518.00;;;;5033230;28;20456;-87
2022/01/07 05:15:37;;;;;;;5.03;3.57;;;1.80;73.70;1.60;96512.00;;;;5031449;28;20957;-88
2022/01/07 05:18:04;;;;;;;5.50;4.03;;;1.80;73.70;1.60;96520.00;;;;5031484;28;20503;-87
2022/01/07 05:20:31;;;;;;;4.57;3.73;;;1.80;73.70;1.60;96522.00;;;;5040471;28;20444;-87
2022/01/07 05:22:58;;;;;;;4.80;3.83;;;1.80;73.50;1.60;96516.00;;;;5049256;28;20455;-87
2022/01/07 05:25:27;;;;;;;4.17;3.30;;;1.80;73.30;1.60;96512.00;;;;5032537;28;20466;-87
2022/01/07 05:27:54;;;;;;;4.73;3.60;;;1.70;73.10;1.50;96511.00;;;;5032838;28;20540;-88
2022/01/07 05:30:22;;;;;;;6.87;3.67;;;1.70;73.00;1.50;96515.00;;;;5033925;28;20444;-88
2022/01/07 05:32:49;;;;;;;4.10;3.70;;;1.70;73.10;1.50;96508.00;;;;5035727;28;20486;-87
2022/01/07 05:35:16;;;;;;;5.33;3.80;;;1.70;73.00;1.40;96514.00;;;;5015504;28;20449;-87
2022/01/07 05:37:43;;;;;;;3.80;3.30;;;1.70;73.20;1.40;96507.00;;;;5030367;28;21063;-87
2022/01/07 05:40:12;;;;;;;3.33;3.03;;;1.60;73.30;1.40;96508.00;;;;5032969;28;20436;-87
2022/01/07 05:42:40;;;;;;;3.77;3.40;;;1.60;73.40;1.40;96505.00;;;;5031104;28;20527;-87
2022/01/07 05:45:09;;;;;;;4.20;3.30;;;1.60;73.50;1.50;96515.00;;;;5013237;28;20557;-87
2022/01/07 05:47:36;;;;;;;3.87;3.57;;;1.60;73.60;1.40;96517.00;;;;5018648;28;20506;-88
2022/01/07 05:50:03;;;;;;;4.27;3.57;;;1.60;73.60;1.40;96518.00;;;;5032409;28;20451;-87
2022/01/07 05:52:30;;;;;;;4.73;4.03;;;1.60;73.60;1.50;96524.00;;;;5031830;28;20436;-88
2022/01/07 05:54:57;;;;;;;3.90;3.60;;;1.60;73.60;1.50;96516.00;;;;5048190;28;20459;-87
2022/01/07 05:57:24;;;;;;;3.83;3.37;;;1.60;73.50;1.40;96523.00;;;;5036848;28;20480;-87
2022/01/07 05:59:52;;;;;;;4.17;3.57;;;1.60;74.10;1.40;96512.00;;;;5032427;28;20439;-87
2022/01/07 06:02:19;;;;;;;3.90;3.60;;;1.60;73.50;1.40;96522.00;;;;5032168;28;20444;-87
2022/01/07 06:04:47;;;;;;;3.73;3.43;;;1.60;73.40;1.40;96530.00;;;;5032536;28;20458;-88
2022/01/07 06:07:14;;;;;;;3.63;3.33;;;1.60;73.30;1.40;96527.00;;;;5031772;28;20447;-87
2022/01/07 06:09:41;;;;;;;5.07;4.47;;;1.60;73.10;1.30;96522.00;;;;5031603;28;20800;-87
2022/01/07 06:12:09;;;;;;;6.30;4.80;;;1.60;73.10;1.30;96516.00;;;;5032482;28;20810;-86
2022/01/07 06:14:36;;;;;;;6.23;5.50;;;1.60;73.20;1.30;96514.00;;;;5033084;28;20460;-87
2022/01/07 06:17:08;;;;;;;6.73;5.43;;;1.50;73.20;1.30;96520.00;;;;5032741;28;20478;-87
2022/01/07 06:19:35;;;;;;;8.10;5.70;;;1.50;73.30;1.30;96515.00;;;;5032104;28;20944;-87
2022/01/07 06:22:02;;;;;;;6.73;5.87;;;1.50;73.30;1.30;96522.00;;;;5034220;28;20438;-87
2022/01/07 06:24:29;;;;;;;8.20;6.83;;;1.50;74.10;1.30;96519.00;;;;5036607;28;20443;-87
2022/01/07 06:26:56;;;;;;;10.60;8.10;;;1.50;73.50;1.30;96516.00;;;;5043332;28;20439;-86
2022/01/07 06:29:23;;;;;;;13.83;9.77;;;1.50;73.40;1.30;96520.00;;;;5050245;28;20439;-87
2022/01/07 06:31:50;;;;;;;23.13;13.70;;;1.50;73.30;1.30;96517.00;;;;5036072;28;20451;-87
2022/01/07 06:34:20;;;;;;;18.70;12.63;;;1.50;73.30;1.30;96518.00;;;;5035540;28;20442;-87
2022/01/07 06:36:47;;;;;;;16.47;10.30;;;1.50;73.40;1.20;96511.00;;;;5035567;28;20478;-87
2022/01/07 06:39:15;;;;;;;16.80;11.20;;;1.50;73.50;1.30;96508.00;;;;5036134;28;20436;-86
2022/01/07 06:41:42;;;;;;;11.43;7.87;;;1.50;73.40;1.20;96509.00;;;;5036178;28;20534;-87
2022/01/07 06:44:09;;;;;;;13.33;8.30;;;1.50;73.40;1.20;96513.00;;;;5035214;28;20440;-87
2022/01/07 06:46:36;;;;;;;14.60;7.80;;;1.40;73.20;1.20;96521.00;;;;5035158;28;20456;-87
2022/01/07 06:49:03;;;;;;;11.40;7.93;;;1.40;73.40;1.20;96513.00;;;;5034741;28;20459;-86
2022/01/07 06:51:32;;;;;;;8.17;6.70;;;1.40;73.30;1.20;96508.00;;;;5034661;28;20447;-87
2022/01/07 06:53:59;;;;;;;7.30;5.83;;;1.40;73.30;1.20;96507.00;;;;5034741;28;20459;-86
2022/01/07 06:56:28;;;;;;;10.80;5.93;;;1.40;73.30;1.20;96505.00;;;;5035337;28;20468;-87
2022/01/07 06:58:55;;;;;;;7.63;6.07;;;1.40;73.40;1.20;96513.00;;;;5035376;28;20471;-87
2022/01/07 07:01:22;;;;;;;8.33;5.90;;;1.50;73.60;1.20;96512.00;;;;5052969;28;20783;-87
2022/01/07 07:03:49;;;;;;;8.70;5.40;;;1.40;73.60;1.20;96512.00;;;;5038312;28;20436;-87
2022/01/07 07:06:16;;;;;;;7.83;5.43;;;1.40;73.60;1.30;96517.00;;;;5035897;28;20478;-86
2022/01/07 07:08:45;;;;;;;5.40;4.77;;;1.50;73.80;1.30;96514.00;;;;5036059;28;20436;-87
2022/01/07 07:11:12;;;;;;;6.17;4.60;;;1.50;73.90;1.30;96508.00;;;;5040767;28;20463;-87
2022/01/07 07:13:39;;;;;;;8.07;5.70;;;1.50;73.90;1.30;96508.00;;;;5040009;28;20429;-87
2022/01/07 07:16:06;;;;;;;5.77;5.17;;;1.50;73.80;1.30;96505.00;;;;5041392;28;20460;-87
2022/01/07 07:18:34;;;;;;;6.07;5.13;;;1.50;73.70;1.30;96497.00;;;;5044536;28;20475;-87
2022/01/07 07:21:01;;;;;;;6.17;4.83;;;1.50;73.70;1.40;96510.00;;;;5047887;28;20439;-87
2022/01/07 07:23:28;;;;;;;5.77;4.63;;;1.50;73.70;1.40;96510.00;;;;5036594;28;20451;-87
2022/01/07 07:25:56;;;;;;;5.80;5.20;;;1.50;73.80;1.40;96514.00;;;;5035599;28;20448;-88
2022/01/07 07:28:23;;;;;;;7.63;5.60;;;1.60;74.10;1.40;96517.00;;;;5035565;28;20448;-87
2022/01/07 07:30:53;;;;;;;7.17;5.67;;;1.60;74.20;1.50;96523.00;;;;5035560;28;20438;-88
2022/01/07 07:33:42;;;;;;;7.33;5.77;;;1.60;74.10;1.50;96525.00;;;;5035073;28;20456;-87
2022/01/07 07:36:30;;;;;;;7.97;5.83;;;1.60;74.20;1.50;96516.00;;;;5046724;28;20495;-88
2022/01/07 07:39:01;;;;;;;6.27;5.67;;;1.70;74.30;1.60;96518.00;;;;5035575;28;20472;-88
2022/01/07 07:41:30;;;;;;;5.87;5.27;;;1.70;74.30;1.60;96517.00;;;;5035205;28;20486;-87
2022/01/07 07:43:57;;;;;;;5.90;4.57;;;1.70;74.40;1.60;96520.00;;;;5035700;28;20443;-87
2022/01/07 07:46:28;;;;;;;5.33;4.30;;;1.70;74.50;1.70;96526.00;;;;5034725;28;20462;-87
2022/01/07 07:48:55;;;;;;;5.13;4.50;;;1.80;74.70;1.70;96521.00;;;;5036198;28;20487;-87
2022/01/07 07:51:22;;;;;;;5.20;4.17;;;1.80;74.80;1.70;96523.00;;;;5036643;28;20439;-88
2022/01/07 07:53:49;;;;;;;4.97;3.83;;;1.80;74.80;1.80;96514.00;;;;5034507;28;20444;-88
2022/01/07 07:56:18;;;;;;;4.67;3.97;;;1.90;75.00;1.80;96517.00;;;;5033844;28;20998;-88
2022/01/07 07:58:47;;;;;;;4.67;3.60;;;1.90;75.00;1.90;96521.00;;;;5034233;28;20778;-87
2022/01/07 08:01:14;;;;;;;4.13;3.63;;;2.00;75.20;2.00;96522.00;;;;5033405;28;20444;-88
2022/01/07 08:03:42;;;;;;;4.83;3.70;;;2.00;76.00;2.00;96526.00;;;;5027304;28;20448;-88
2022/01/07 08:06:09;;;;;;;4.70;3.47;;;2.10;75.30;2.10;96531.00;;;;5014560;28;20456;-88
2022/01/07 08:08:36;;;;;;;4.30;3.80;;;2.10;75.30;2.10;96541.00;;;;5038470;28;20531;-88
2022/01/07 08:11:07;;;;;;;5.23;4.33;;;2.20;75.40;2.20;96539.00;;;;5034208;28;20451;-88
2022/01/07 08:16:19;;;;;;;4.40;3.97;;;2.30;75.50;2.30;96527.00;;;;5032969;28;20452;-88
2022/01/07 08:18:49;;;;;;;3.93;3.63;;;2.30;75.40;2.30;96518.00;;;;5032860;28;20484;-88
2022/01/07 08:21:16;;;;;;;3.70;3.40;;;2.40;76.20;2.40;96525.00;;;;5032537;28;20440;-89
2022/01/07 08:23:46;;;;;;;4.10;3.03;;;2.40;75.50;2.40;96533.00;;;;5034360;28;20535;-88
2022/01/07 08:26:15;;;;;;;4.80;3.50;;;2.50;75.60;2.50;96532.00;;;;5033545;28;20983;-88
2022/01/07 08:28:48;;;;;;;3.10;2.77;;;2.50;75.50;2.50;96524.00;;;;5033232;28;20428;-88
2022/01/07 08:34:53;;;;;;;4.60;3.27;;;2.60;75.40;2.60;96522.00;;;;5032534;28;20878;-88
2022/01/07 08:37:01;;;;;;;3.93;2.93;;;2.70;75.40;2.70;96522.00;;;;5032540;28;20574;-88
2022/01/07 08:39:28;;;;;;;4.93;4.30;;;2.70;75.40;2.70;96519.00;;;;5032439;28;20424;-87
2022/01/07 08:41:56;;;;;;;4.60;3.70;;;2.80;75.40;2.80;96524.00;;;;5032988;28;20447;-88
2022/01/07 08:44:25;;;;;;;4.57;3.90;;;2.90;75.50;2.90;96522.00;;;;5028955;28;20444;-88
2022/01/07 08:46:54;;;;;;;4.90;3.90;;;2.90;75.50;2.90;96524.00;;;;5032906;28;20448;-89
2022/01/07 08:49:22;;;;;;;4.17;3.33;;;3.00;75.50;3.00;96521.00;;;;5032525;28;20470;-89
2022/01/07 08:51:49;;;;;;;3.77;3.33;;;3.00;75.40;3.10;96528.00;;;;5032961;28;20440;-89
2022/01/07 08:54:16;;;;;;;3.53;3.23;;;3.10;75.40;3.10;96523.00;;;;5032615;28;20514;-88
2022/01/07 08:56:43;;;;;;;5.30;3.40;;;3.10;75.40;3.20;96528.00;;;;5032711;28;20447;-89
2022/01/07 08:59:10;;;;;;;3.53;3.23;;;3.20;75.60;3.30;96520.00;;;;5036053;28;20476;-89
2022/01/07 09:01:38;;;;;;;3.77;3.47;;;3.30;75.60;3.40;96515.00;;;;5032849;28;20424;-88
2022/01/07 09:04:06;;;;;;;4.77;3.03;;;3.30;75.30;3.40;96522.00;;;;5032478;28;20444;-88
2022/01/07 09:06:33;;;;;;;3.70;3.40;;;3.40;75.50;3.50;96532.00;;;;5031904;28;20452;-88
2022/01/07 09:09:00;;;;;;;3.20;2.90;;;3.40;75.60;3.60;96524.00;;;;5032286;28;20201;-88
2022/01/07 09:11:27;;;;;;;3.50;3.00;;;3.50;75.70;3.70;96524.00;;;;5032455;28;20189;-89
2022/01/07 09:13:58;;;;;;;3.63;2.80;;;3.60;75.70;3.70;96527.00;;;;5037224;28;20672;-89
2022/01/07 09:16:25;;;;;;;6.60;2.93;;;3.70;75.60;3.80;96524.00;;;;5044409;28;20782;-89
2022/01/07 09:18:53;;;;;;;3.10;2.90;;;3.80;75.40;3.90;96522.00;;;;5031998;28;20233;-88
2022/01/07 09:21:21;;;;;;;3.33;2.90;;;3.80;75.30;4.00;96517.00;;;;5032520;28;20277;-89
2022/01/07 09:23:49;;;;;;;3.07;2.77;;;3.90;75.40;4.00;96514.00;;;;5032372;28;20201;-88
2022/01/07 09:26:16;;;;;;;4.57;2.37;;;4.00;75.30;4.10;96520.00;;;;5031591;28;20652;-89
2022/01/07 09:28:43;;;;;;;3.93;2.70;;;4.10;75.90;4.20;96519.00;;;;5032224;28;20200;-89
2022/01/07 09:31:13;;;;;;;3.50;3.10;;;4.10;75.20;4.20;96521.00;;;;5031150;28;20193;-89
2022/01/07 09:33:41;;;;;;;3.13;2.83;;;4.20;74.90;4.30;96517.00;;;;5032166;28;20209;-88
2022/01/07 09:36:08;;;;;;;3.90;3.33;;;4.30;75.00;4.40;96505.00;;;;5032217;28;20220;-89
2022/01/07 09:38:36;;;;;;;3.30;3.00;;;4.30;74.90;4.40;96505.00;;;;5032590;28;20225;-89
2022/01/07 09:41:05;;;;;;;3.47;3.17;;;4.30;74.70;4.50;96503.00;;;;5032938;28;20460;-88
2022/01/07 09:43:32;;;;;;;4.63;3.37;;;4.50;75.00;4.60;96507.00;;;;5032701;28;20205;-88
2022/01/07 09:46:00;;;;;;;3.43;3.13;;;4.50;74.80;4.70;96502.00;;;;5032747;28;20236;-88
2022/01/07 09:48:27;;;;;;;3.60;3.30;;;4.50;74.80;4.80;96496.00;;;;5032736;28;20190;-88
2022/01/07 09:50:54;;;;;;;3.50;2.97;;;4.70;74.40;4.80;96509.00;;;;5081562;22;20238;-81
2022/01/07 09:53:23;;;;;;;4.87;3.73;;;4.80;74.70;4.90;96503.00;;;;5075978;28;20210;-81
2022/01/07 09:55:51;;;;;;;3.57;3.27;;;4.90;74.10;5.00;96494.00;;;;5074974;28;20196;-81
2022/01/07 09:58:18;;;;;;;3.67;3.37;;;5.00;73.90;5.00;96506.00;;;;5079811;28;20220;-81
2022/01/07 10:00:46;;;;;;;3.40;3.10;;;5.10;73.90;5.10;96498.00;;;;5062362;28;20224;-81
2022/01/07 10:03:17;;;;;;;3.10;2.90;;;5.10;74.00;5.10;96500.00;;;;5059222;28;20228;-80
2022/01/07 10:05:49;;;;;;;3.10;2.80;;;5.20;73.60;5.20;96504.00;;;;5044859;28;20215;-81
2022/01/07 10:08:25;;;;;;;3.23;2.93;;;5.30;73.40;5.20;96496.00;;;;5058764;28;20201;-81
2022/01/07 10:11:16;;;;;;;3.00;2.80;;;5.30;73.10;5.30;96501.00;;;;5059871;28;20221;-81
2022/01/07 10:13:46;;;;;;;2.70;2.50;;;5.40;72.30;5.30;96516.00;;;;5060616;28;20199;-81
2022/01/07 10:16:18;;;;;;;3.73;2.77;;;5.40;72.70;5.30;96506.00;;;;5063152;28;20203;-81
2022/01/07 10:18:47;;;;;;;2.57;2.27;;;5.50;72.80;5.30;96499.00;;;;5063946;28;20929;-81
2022/01/07 10:21:16;;;;;;;3.73;2.93;;;5.50;72.60;5.40;96503.00;;;;5063355;28;20216;-80
2022/01/07 10:23:45;;;;;;;3.50;3.20;;;5.50;72.70;5.40;96489.00;;;;5062668;28;20196;-80
2022/01/07 10:26:16;;;;;;;2.70;2.50;;;5.50;72.00;5.40;96492.00;;;;5062334;28;20200;-81
2022/01/07 10:28:46;;;;;;;3.20;2.80;;;5.60;71.80;5.40;96490.00;;;;5061795;28;20197;-81
2022/01/07 10:31:22;;;;;;;3.70;3.40;;;5.60;70.50;5.40;96487.00;;;;5062616;28;20653;-81
2022/01/07 10:33:49;;;;;;;3.10;2.73;;;5.60;71.20;5.40;96487.00;;;;5054962;28;20260;-81
2022/01/07 10:36:21;;;;;;;3.30;3.00;;;5.60;71.60;5.50;96486.00;;;;5058863;28;20188;-81
2022/01/07 10:38:53;;;;;;;3.47;2.90;;;5.60;71.40;5.50;96483.00;;;;5062013;28;20227;-81
2022/01/07 10:41:22;;;;;;;3.87;3.17;;;5.70;71.60;5.50;96470.00;;;;5061504;28;20692;-81
2022/01/07 10:43:51;;;;;;;2.83;2.63;;;5.60;71.30;5.50;96480.00;;;;5061754;28;20193;-81
2022/01/07 10:46:25;;;;;;;4.10;3.70;;;5.60;71.70;5.60;96466.00;;;;5060811;28;20193;-81
2022/01/07 10:48:58;;;;;;;4.13;3.67;;;5.70;71.70;5.70;96469.00;;;;5062499;28;20243;-81
2022/01/07 10:51:27;;;;;;;4.67;3.80;;;5.70;72.00;5.80;96466.00;;;;5066424;28;20193;-81
2022/01/07 10:53:56;;;;;;;4.27;3.87;;;5.80;72.10;5.90;96467.00;;;;5049334;28;20192;-81
2022/01/07 10:56:34;;;;;;;4.23;3.77;;;5.80;72.10;5.90;96468.00;;;;5062415;28;20201;-81
2022/01/07 10:59:06;;;;;;;4.40;3.90;;;5.90;71.80;6.00;96457.00;;;;5061153;28;20220;-81
2022/01/07 11:01:42;;;;;;;4.20;3.80;;;5.90;71.70;6.10;96468.00;;;;5061436;28;20192;-81
2022/01/07 11:04:16;;;;;;;4.70;4.30;;;6.00;71.90;6.10;96466.00;;;;5060831;28;20200;-81
2022/01/07 11:06:44;;;;;;;5.37;4.43;;;6.00;72.20;6.20;96461.00;;;;5061427;28;20197;-81
2022/01/07 11:09:14;;;;;;;4.70;3.77;;;5.90;72.00;6.20;96465.00;;;;5059834;28;20244;-81
2022/01/07 11:11:50;;;;;;;4.90;3.90;;;6.10;71.70;6.20;96458.00;;;;5060384;28;20197;-81
2022/01/07 11:14:24;;;;;;;4.30;3.90;;;6.20;71.50;6.20;96445.00;;;;5059782;28;20208;-81
2022/01/07 11:16:52;;;;;;;5.80;4.00;;;6.20;71.10;6.30;96447.00;;;;5060257;28;20207;-81
2022/01/07 11:19:23;;;;;;;5.13;3.83;;;6.20;71.10;6.30;96443.00;;;;5060256;28;20229;-82
2022/01/07 11:21:54;;;;;;;4.00;3.60;;;6.30;71.40;6.30;96435.00;;;;5060939;28;20287;-82